createdAt,value
2019-01-20T00:01:11.989Z,27.33
2019-01-20T00:03:40.931Z,26.20
2019-01-20T00:06:09.988Z,37.80
2019-01-20T00:08:39.089Z,28.23
2019-01-20T00:11:27.239Z,28.92
2019-01-20T00:13:56.256Z,26.30
2019-01-20T00:16:25.363Z,28.67
2019-01-20T00:18:54.426Z,27.40
2019-01-20T00:21:29.387Z,31.90
2019-01-20T00:23:58.423Z,28.87
2019-01-20T00:26:27.450Z,27.02
2019-01-20T00:28:56.447Z,33.10
2019-01-20T00:31:25.362Z,22.17
2019-01-20T00:33:54.499Z,26.30
2019-01-20T00:36:23.613Z,28.20
2019-01-20T00:38:52.705Z,27.35
2019-01-20T00:41:24.262Z,21.87
2019-01-20T00:43:52.402Z,24.90
2019-01-20T00:46:21.425Z,22.32
2019-01-20T00:48:50.464Z,28.02
2019-01-20T00:51:20.228Z,30.02
2019-01-20T00:53:49.212Z,27.22
2019-01-20T00:56:18.234Z,29.45
2019-01-20T00:58:47.272Z,24.18
2019-01-20T01:01:16.388Z,26.52
2019-01-20T01:03:45.424Z,25.02
2019-01-20T01:06:14.447Z,22.35
2019-01-20T01:08:43.481Z,26.68
2019-01-20T01:11:12.536Z,25.57
2019-01-20T01:13:41.592Z,22.10
2019-01-20T01:16:10.679Z,31.52
2019-01-20T01:18:39.592Z,26.65
2019-01-20T01:21:08.637Z,33.00
2019-01-20T01:23:37.674Z,26.52
2019-01-20T01:26:06.732Z,27.13
2019-01-20T01:28:35.805Z,26.82
2019-01-20T01:31:04.960Z,25.15
2019-01-20T01:33:34.025Z,25.30
2019-01-20T01:36:22.169Z,25.12
2019-01-20T01:38:51.192Z,23.00
2019-01-20T01:41:20.346Z,25.55
2019-01-20T01:43:49.382Z,26.33
2019-01-20T01:46:18.420Z,22.02
2019-01-20T01:48:47.444Z,29.12
2019-01-20T01:51:16.411Z,24.52
2019-01-20T01:53:45.367Z,26.75
2019-01-20T01:56:14.419Z,27.40
2019-01-20T01:58:43.436Z,29.32
2019-01-20T02:01:12.474Z,25.02
2019-01-20T02:03:41.528Z,23.40
2019-01-20T02:06:10.571Z,24.25
2019-01-20T02:08:39.553Z,30.25
2019-01-20T02:11:08.595Z,20.72
2019-01-20T02:13:37.624Z,30.57
2019-01-20T02:16:06.687Z,21.27
2019-01-20T02:18:35.723Z,25.97
2019-01-20T02:21:04.784Z,21.82
2019-01-20T02:23:34.114Z,22.50
2019-01-20T02:26:03.136Z,21.30
2019-01-20T02:28:32.202Z,25.90
2019-01-20T02:31:01.224Z,23.05
2019-01-20T02:33:30.319Z,22.62
2019-01-20T02:35:59.232Z,20.32
2019-01-20T02:38:28.242Z,19.95
2019-01-20T02:40:57.272Z,21.80
2019-01-20T02:43:26.329Z,22.25
2019-01-20T02:45:55.340Z,20.80
2019-01-20T02:48:24.396Z,23.38
2019-01-20T02:50:53.339Z,25.12
2019-01-20T02:53:22.348Z,23.67
2019-01-20T02:55:51.448Z,20.97
2019-01-20T02:58:20.493Z,25.05
2019-01-20T03:00:49.531Z,26.23
2019-01-20T03:03:18.482Z,24.45
2019-01-20T03:05:47.460Z,24.67
2019-01-20T03:08:16.527Z,32.23
2019-01-20T03:10:45.577Z,23.55
2019-01-20T03:13:14.680Z,25.90
2019-01-20T03:15:43.708Z,26.30
2019-01-20T03:18:12.694Z,26.55
2019-01-20T03:20:41.774Z,23.75
2019-01-20T03:23:10.840Z,26.12
2019-01-20T03:25:39.861Z,27.15
2019-01-20T03:28:08.845Z,23.07
2019-01-20T03:30:37.968Z,22.77
2019-01-20T03:33:07.050Z,24.12
2019-01-20T03:35:36.151Z,27.98
2019-01-20T03:38:05.238Z,30.72
2019-01-20T03:40:34.664Z,29.57
2019-01-20T03:43:03.788Z,26.35
2019-01-20T03:45:32.817Z,20.85
2019-01-20T03:48:01.852Z,29.57
2019-01-20T03:50:30.836Z,26.17
2019-01-20T03:52:59.833Z,29.92
2019-01-20T03:55:28.884Z,30.85
2019-01-20T03:57:58.225Z,27.30
2019-01-20T04:00:27.250Z,23.75
2019-01-20T04:03:00.120Z,25.10
2019-01-20T04:05:29.260Z,19.87
2019-01-20T04:07:58.354Z,26.30
2019-01-20T04:10:27.382Z,25.80
2019-01-20T04:12:56.421Z,23.75
2019-01-20T04:15:29.396Z,23.52
2019-01-20T04:17:58.426Z,23.85
2019-01-20T04:20:27.497Z,19.02
2019-01-20T04:22:56.528Z,23.83
2019-01-20T04:25:25.549Z,18.10
2019-01-20T04:28:13.677Z,18.92
2019-01-20T04:30:42.781Z,20.82
2019-01-20T04:33:13.902Z,18.77
2019-01-20T04:35:45.053Z,16.82
2019-01-20T04:38:14.064Z,19.80
2019-01-20T04:40:43.115Z,19.82
2019-01-20T04:43:12.132Z,19.95
2019-01-20T04:45:41.138Z,22.93
2019-01-20T04:48:10.103Z,21.10
2019-01-20T04:50:39.136Z,20.60
2019-01-20T04:53:08.655Z,16.35
2019-01-20T04:55:37.793Z,16.67
2019-01-20T04:58:07.110Z,20.10
2019-01-20T05:00:36.158Z,18.05
2019-01-20T05:03:05.665Z,24.57
2019-01-20T05:05:37.379Z,19.92
2019-01-20T05:08:06.352Z,21.10
2019-01-20T05:10:35.413Z,19.92
2019-01-20T05:13:04.442Z,17.20
2019-01-20T05:15:33.464Z,23.77
2019-01-20T05:18:02.468Z,16.05
2019-01-20T05:20:31.601Z,21.30
2019-01-20T05:23:00.638Z,20.95
2019-01-20T05:25:29.794Z,16.95
2019-01-20T05:27:58.785Z,20.50
2019-01-20T05:30:27.830Z,17.12
2019-01-20T05:32:56.799Z,24.63
2019-01-20T05:35:25.863Z,22.50
2019-01-20T05:37:54.803Z,17.62
2019-01-20T05:40:23.820Z,18.37
2019-01-20T05:42:52.883Z,17.92
2019-01-20T05:45:23.758Z,17.67
2019-01-20T05:47:52.791Z,16.77
2019-01-20T05:50:21.850Z,15.88
2019-01-20T05:52:50.877Z,15.63
2019-01-20T05:55:19.921Z,18.52
2019-01-20T05:57:48.893Z,20.77
2019-01-20T06:00:29.160Z,17.82
2019-01-20T06:02:58.113Z,24.92
2019-01-20T06:05:27.080Z,18.07
2019-01-20T06:07:56.131Z,28.30
2019-01-20T06:10:27.930Z,17.60
2019-01-20T06:12:56.967Z,20.77
2019-01-20T06:15:25.980Z,16.12
2019-01-20T06:17:55.061Z,17.73
2019-01-20T06:20:24.173Z,17.42
2019-01-20T06:22:59.040Z,22.82
2019-01-20T06:25:28.017Z,20.88
2019-01-20T06:27:56.950Z,15.10
2019-01-20T06:30:31.161Z,26.85
2019-01-20T06:33:00.188Z,16.37
2019-01-20T06:35:29.231Z,17.80
2019-01-20T06:37:58.267Z,14.73
2019-01-20T06:40:27.336Z,16.37
2019-01-20T06:43:01.603Z,16.42
2019-01-20T06:45:27.140Z,18.92
2019-01-20T06:47:56.108Z,19.35
2019-01-20T06:50:25.134Z,17.67
2019-01-20T06:52:54.080Z,16.85
2019-01-20T06:55:23.126Z,17.35
2019-01-20T06:57:52.155Z,24.12
2019-01-20T07:00:22.946Z,14.25
2019-01-20T07:02:52.053Z,19.20
2019-01-20T07:05:21.085Z,14.38
2019-01-20T07:07:50.140Z,18.27
2019-01-20T07:10:20.051Z,16.20
2019-01-20T07:12:49.085Z,19.55
2019-01-20T07:15:20.097Z,12.82
2019-01-20T07:18:08.154Z,19.27
2019-01-20T07:20:37.176Z,20.00
2019-01-20T07:23:06.229Z,16.27
2019-01-20T07:25:35.252Z,17.95
2019-01-20T07:28:04.301Z,15.25
2019-01-20T07:30:33.250Z,15.68
2019-01-20T07:33:03.716Z,17.92
2019-01-20T07:35:32.776Z,19.10
2019-01-20T07:38:01.809Z,15.30
2019-01-20T07:40:30.865Z,13.60
2019-01-20T07:42:59.729Z,13.83
2019-01-20T07:45:28.761Z,14.38
2019-01-20T07:47:57.814Z,10.13
2019-01-20T07:50:27.370Z,11.38
2019-01-20T07:52:56.460Z,20.30
2019-01-20T07:55:25.456Z,12.00
2019-01-20T07:57:54.704Z,27.45
2019-01-20T08:00:25.410Z,11.57
2019-01-20T08:02:54.544Z,10.30
2019-01-20T08:05:23.576Z,11.90
2019-01-20T08:07:52.601Z,19.90
2019-01-20T08:10:29.396Z,13.43
2019-01-20T08:12:58.572Z,12.40
2019-01-20T08:15:27.594Z,13.57
2019-01-20T08:17:56.707Z,10.20
2019-01-20T08:20:26.056Z,12.37
2019-01-20T08:22:55.220Z,8.90
2019-01-20T08:25:24.264Z,8.53
2019-01-20T08:27:53.301Z,12.17
2019-01-20T08:30:24.512Z,12.30
2019-01-20T08:32:53.779Z,12.10
2019-01-20T08:35:22.783Z,11.83
2019-01-20T08:37:51.846Z,11.90
2019-01-20T08:40:28.780Z,14.63
2019-01-20T08:42:57.856Z,12.83
2019-01-20T08:45:35.797Z,14.53
2019-01-20T08:48:10.406Z,13.23
2019-01-20T08:50:39.461Z,10.87
2019-01-20T08:53:08.428Z,9.03
2019-01-20T08:55:37.613Z,12.40
2019-01-20T08:58:06.620Z,6.90
2019-01-20T09:00:35.667Z,12.00
2019-01-20T09:03:05.259Z,6.63
2019-01-20T09:05:34.268Z,12.57
2019-01-20T09:08:03.312Z,8.63
2019-01-20T09:10:32.345Z,7.77
2019-01-20T09:13:03.542Z,13.70
2019-01-20T09:15:32.544Z,7.93
2019-01-20T09:18:01.589Z,8.80
2019-01-20T09:20:30.563Z,9.80
2019-01-20T09:22:59.667Z,8.43
2019-01-20T09:25:28.715Z,10.70
2019-01-20T09:27:57.758Z,15.07
2019-01-20T09:30:26.759Z,10.93
2019-01-20T09:32:55.811Z,17.97
2019-01-20T09:35:25.090Z,11.53
2019-01-20T09:37:54.138Z,12.37
2019-01-20T09:40:23.116Z,10.17
2019-01-20T09:42:52.181Z,10.60
2019-01-20T09:45:28.267Z,13.90
2019-01-20T09:47:57.719Z,15.47
2019-01-20T09:50:26.765Z,13.43
2019-01-20T09:52:55.790Z,12.03
2019-01-20T09:55:24.786Z,9.30
2019-01-20T09:57:53.815Z,11.40
2019-01-20T10:00:24.515Z,12.90
2019-01-20T10:02:53.866Z,10.60
2019-01-20T10:05:22.904Z,10.90
2019-01-20T10:07:51.843Z,9.03
2019-01-20T10:10:20.806Z,9.27
2019-01-20T10:12:49.756Z,10.17
2019-01-20T10:15:18.769Z,11.13
2019-01-20T10:17:47.773Z,11.07
2019-01-20T10:20:25.379Z,10.90
2019-01-20T10:22:54.424Z,13.27
2019-01-20T10:25:23.476Z,12.63
2019-01-20T10:27:52.517Z,13.60
2019-01-20T10:30:32.736Z,9.30
2019-01-20T10:33:03.342Z,17.13
2019-01-20T10:35:37.337Z,13.70
2019-01-20T10:38:08.157Z,16.57
2019-01-20T10:40:37.219Z,18.13
2019-01-20T10:43:06.284Z,18.83
2019-01-20T10:45:35.310Z,21.60
2019-01-20T10:48:05.572Z,24.13
2019-01-20T10:50:34.568Z,23.80
2019-01-20T10:53:03.792Z,20.70
2019-01-20T10:55:33.445Z,20.63
2019-01-20T10:58:02.476Z,28.80
2019-01-20T11:00:33.441Z,21.10
2019-01-20T11:03:02.465Z,25.53
2019-01-20T11:05:32.764Z,23.87
2019-01-20T11:08:02.240Z,22.90
2019-01-20T11:10:31.349Z,25.73
2019-01-20T11:13:00.289Z,30.67
2019-01-20T11:15:29.351Z,32.20
2019-01-20T11:17:58.316Z,25.37
2019-01-20T11:20:27.329Z,30.57
2019-01-20T11:22:56.364Z,29.47
2019-01-20T11:25:28.088Z,27.10
2019-01-20T11:27:57.117Z,35.80
2019-01-20T11:30:26.121Z,29.13
2019-01-20T11:32:55.142Z,24.67
2019-01-20T11:35:43.268Z,23.67
2019-01-20T11:38:12.328Z,27.87
2019-01-20T11:40:41.344Z,32.10
2019-01-20T11:43:10.298Z,26.60
2019-01-20T11:45:39.401Z,31.00
2019-01-20T11:48:08.522Z,24.77
2019-01-20T11:50:37.515Z,31.43
2019-01-20T11:53:06.599Z,26.70
2019-01-20T11:55:35.709Z,28.33
2019-01-20T11:58:04.765Z,27.90
2019-01-20T12:00:37.648Z,31.80
2019-01-20T12:03:08.109Z,24.53
2019-01-20T12:05:39.350Z,27.93
2019-01-20T12:08:08.952Z,27.63
2019-01-20T12:10:37.957Z,26.57
2019-01-20T12:13:09.232Z,37.60
2019-01-20T12:15:38.312Z,28.43
2019-01-20T12:18:07.713Z,32.43
2019-01-20T12:20:36.743Z,24.53
2019-01-20T12:23:06.281Z,29.23
2019-01-20T12:25:35.565Z,27.47
2019-01-20T12:28:04.593Z,28.33
2019-01-20T12:30:35.507Z,26.77
2019-01-20T12:33:04.908Z,30.13
2019-01-20T12:35:33.940Z,23.80
2019-01-20T12:38:03.032Z,25.73
2019-01-20T12:40:43.448Z,28.73
2019-01-20T12:43:18.235Z,25.00
2019-01-20T12:45:47.285Z,27.83
2019-01-20T12:48:16.368Z,28.53
2019-01-20T12:50:48.384Z,24.47
2019-01-20T12:53:17.388Z,28.57
2019-01-20T12:55:46.450Z,26.53
2019-01-20T12:58:15.933Z,25.30
2019-01-20T13:00:44.956Z,25.17
2019-01-20T13:03:14.009Z,25.90
2019-01-20T13:05:43.048Z,24.80
2019-01-20T13:08:12.292Z,27.43
2019-01-20T13:10:41.822Z,27.80
2019-01-20T13:13:10.885Z,24.87
2019-01-20T13:15:39.868Z,25.10
2019-01-20T13:18:08.912Z,28.43
2019-01-20T13:20:39.094Z,25.87
2019-01-20T13:23:08.096Z,24.80
2019-01-20T13:25:37.115Z,29.17
2019-01-20T13:28:09.216Z,24.50
2019-01-20T13:30:38.524Z,24.77
2019-01-20T13:33:07.508Z,23.40
2019-01-20T13:35:36.700Z,24.97
2019-01-20T13:38:25.662Z,23.73
2019-01-20T13:41:32.735Z,27.03
2019-01-20T13:44:01.778Z,28.60
2019-01-20T13:46:30.771Z,22.70
2019-01-20T13:48:59.832Z,24.03
2019-01-20T13:51:28.872Z,26.47
2019-01-20T13:53:57.911Z,24.73
2019-01-20T13:56:26.860Z,23.50
2019-01-20T13:58:55.901Z,27.50
2019-01-20T14:01:24.916Z,28.43
2019-01-20T14:03:53.932Z,24.33
2019-01-20T14:06:23.087Z,25.20
2019-01-20T14:08:52.117Z,25.17
2019-01-20T14:11:21.152Z,24.07
2019-01-20T14:13:51.703Z,22.37
2019-01-20T14:16:20.724Z,22.90
2019-01-20T14:18:49.769Z,26.23
2019-01-20T14:21:37.932Z,26.17
2019-01-20T14:24:06.888Z,21.33
2019-01-20T14:26:35.946Z,21.53
2019-01-20T14:29:05.279Z,26.53
2019-01-20T14:31:34.236Z,20.13
2019-01-20T14:34:03.239Z,23.57
2019-01-20T14:36:32.284Z,20.30
2019-01-20T14:39:01.240Z,21.93
2019-01-20T14:41:30.266Z,25.77
2019-01-20T14:43:59.308Z,21.13
2019-01-20T14:46:28.341Z,20.67
2019-01-20T14:48:57.410Z,19.00
2019-01-20T14:51:26.392Z,19.80
2019-01-20T14:53:55.415Z,19.60
2019-01-20T14:56:24.524Z,19.40
2019-01-20T14:58:53.616Z,20.20
2019-01-20T15:01:22.647Z,19.70
2019-01-20T15:03:51.596Z,24.77
2019-01-20T15:06:20.625Z,20.40
2019-01-20T15:08:49.671Z,26.27
2019-01-20T15:11:18.681Z,23.03
2019-01-20T15:13:47.682Z,22.03
2019-01-20T15:16:16.856Z,21.57
2019-01-20T15:19:05.265Z,21.23
2019-01-20T15:21:34.301Z,26.77
2019-01-20T15:24:03.324Z,26.70
2019-01-20T15:26:32.411Z,24.87
2019-01-20T15:29:01.525Z,20.60
2019-01-20T15:31:33.649Z,26.53
2019-01-20T15:34:02.699Z,24.57
2019-01-20T15:36:31.642Z,21.70
2019-01-20T15:39:00.704Z,28.47
2019-01-20T15:41:29.825Z,25.10
2019-01-20T15:43:58.929Z,26.57
2019-01-20T15:46:27.941Z,25.17
2019-01-20T15:48:56.984Z,25.50
2019-01-20T15:51:26.021Z,20.67
2019-01-20T15:53:55.068Z,22.50
2019-01-20T15:56:24.108Z,22.90
2019-01-20T15:58:53.116Z,24.13
2019-01-20T16:01:22.147Z,23.40
2019-01-20T16:03:51.181Z,23.87
2019-01-20T16:06:20.200Z,24.20
2019-01-20T16:08:49.228Z,29.87
2019-01-20T16:11:18.296Z,24.17
2019-01-20T16:13:47.327Z,29.23
2019-01-20T16:16:16.357Z,27.60
2019-01-20T16:18:45.363Z,23.87
2019-01-20T16:21:14.409Z,25.40
2019-01-20T16:23:43.440Z,25.60
2019-01-20T16:26:12.492Z,27.30
2019-01-20T16:28:41.532Z,27.00
2019-01-20T16:31:10.566Z,30.20
2019-01-20T16:33:39.511Z,24.43
2019-01-20T16:36:08.528Z,25.77
2019-01-20T16:38:37.580Z,32.47
2019-01-20T16:41:06.568Z,29.30
2019-01-20T16:43:35.601Z,30.57
2019-01-20T16:46:05.153Z,28.10
2019-01-20T16:48:34.175Z,33.97
2019-01-20T16:51:03.200Z,29.83
2019-01-20T16:53:32.249Z,30.27
2019-01-20T16:56:01.276Z,26.80
2019-01-20T16:58:30.319Z,29.17
2019-01-20T17:00:59.339Z,27.87
2019-01-20T17:03:28.544Z,29.60
2019-01-20T17:05:57.577Z,27.17
2019-01-20T17:08:26.648Z,26.70
2019-01-20T17:10:55.661Z,26.07
2019-01-20T17:13:24.698Z,29.00
2019-01-20T17:15:53.728Z,26.80
2019-01-20T17:18:22.749Z,27.87
2019-01-20T17:20:51.803Z,27.77
2019-01-20T17:23:39.932Z,29.77
2019-01-20T17:26:08.949Z,29.20
2019-01-20T17:28:37.960Z,28.37
2019-01-20T17:31:06.967Z,32.80
2019-01-20T17:33:36.012Z,32.43
2019-01-20T17:36:05.347Z,31.57
2019-01-20T17:38:34.370Z,31.03
2019-01-20T17:41:03.407Z,28.90
2019-01-20T17:43:35.543Z,32.93
2019-01-20T17:46:04.953Z,30.33
2019-01-20T17:48:33.988Z,30.70
2019-01-20T17:51:03.037Z,35.20
2019-01-20T17:53:31.980Z,35.70
2019-01-20T17:56:01.023Z,34.53
2019-01-20T17:58:30.043Z,34.97
2019-01-20T18:01:03.369Z,30.10
2019-01-20T18:03:32.447Z,32.23
2019-01-20T18:06:01.828Z,31.30
2019-01-20T18:08:30.832Z,34.67
2019-01-20T18:10:59.848Z,36.57
2019-01-20T18:13:28.860Z,34.73
2019-01-20T18:15:57.908Z,37.73
2019-01-20T18:18:26.953Z,37.50
2019-01-20T18:20:55.976Z,40.30
2019-01-20T18:23:25.032Z,36.00
2019-01-20T18:25:54.050Z,37.80
2019-01-20T18:28:37.997Z,37.83
2019-01-20T18:31:07.021Z,40.13
2019-01-20T18:33:35.974Z,39.53
2019-01-20T18:36:05.399Z,38.80
2019-01-20T18:38:34.337Z,38.20
2019-01-20T18:41:03.327Z,38.27
2019-01-20T18:43:32.329Z,39.80
2019-01-20T18:46:01.864Z,44.07
2019-01-20T18:48:31.392Z,40.30
2019-01-20T18:51:00.292Z,43.47
2019-01-20T18:53:35.076Z,38.77
2019-01-20T18:56:04.411Z,39.43
2019-01-20T18:58:33.405Z,47.10
2019-01-20T19:01:02.447Z,43.33
2019-01-20T19:03:31.480Z,44.73
2019-01-20T19:06:00.439Z,45.30
2019-01-20T19:08:29.495Z,40.30
2019-01-20T19:10:58.422Z,39.83
2019-01-20T19:13:27.453Z,44.70
2019-01-20T19:15:56.853Z,45.97
2019-01-20T19:18:25.802Z,46.07
2019-01-20T19:20:54.864Z,40.30
2019-01-20T19:23:23.865Z,42.10
2019-01-20T19:25:52.883Z,44.50
2019-01-20T19:28:21.910Z,45.03
2019-01-20T19:30:50.919Z,44.13
2019-01-20T19:33:19.941Z,41.67
2019-01-20T19:35:48.975Z,40.77
2019-01-20T19:38:18.008Z,37.00
2019-01-20T19:40:46.961Z,49.97
2019-01-20T19:43:16.015Z,46.70
2019-01-20T19:45:45.104Z,47.63
2019-01-20T19:48:20.128Z,47.47
2019-01-20T19:50:44.892Z,48.43
2019-01-20T19:53:14.024Z,44.83
2019-01-20T19:55:43.051Z,47.73
2019-01-20T19:58:12.063Z,43.77
2019-01-20T20:00:41.100Z,48.30
2019-01-20T20:03:10.017Z,53.53
2019-01-20T20:05:39.039Z,44.17
2019-01-20T20:08:14.076Z,44.53
2019-01-20T20:10:43.088Z,49.47
2019-01-20T20:13:12.097Z,46.23
2019-01-20T20:15:41.104Z,47.00
2019-01-20T20:18:10.166Z,46.77
2019-01-20T20:20:39.104Z,49.53
2019-01-20T20:23:08.113Z,41.27
2019-01-20T20:25:37.143Z,44.43
2019-01-20T20:28:06.364Z,45.23
2019-01-20T20:30:36.975Z,47.17
2019-01-20T20:33:06.822Z,44.07
2019-01-20T20:35:35.881Z,42.77
2019-01-20T20:38:24.015Z,43.10
2019-01-20T20:40:52.895Z,46.10
2019-01-20T20:43:22.061Z,45.20
2019-01-20T20:45:51.096Z,47.17
2019-01-20T20:48:20.118Z,47.40
2019-01-20T20:50:49.077Z,50.00
2019-01-20T20:53:18.020Z,42.67
2019-01-20T20:55:47.016Z,51.80
2019-01-20T20:58:15.994Z,43.43
2019-01-20T21:00:47.650Z,47.00
2019-01-20T21:03:31.838Z,52.27
2019-01-20T21:06:00.873Z,49.33
2019-01-20T21:08:30.076Z,43.80
2019-01-20T21:10:59.351Z,45.77
2019-01-20T21:13:28.301Z,43.83
2019-01-20T21:15:57.315Z,43.13
2019-01-20T21:18:26.336Z,43.30
2019-01-20T21:20:55.296Z,45.83
2019-01-20T21:23:24.330Z,46.07
2019-01-20T21:25:53.360Z,42.50
2019-01-20T21:28:22.403Z,51.50
2019-01-20T21:30:57.412Z,47.20
2019-01-20T21:33:26.385Z,43.40
2019-01-20T21:35:55.446Z,50.60
2019-01-20T21:38:24.478Z,46.83
2019-01-20T21:40:53.516Z,43.20
2019-01-20T21:43:22.465Z,46.27
2019-01-20T21:45:51.491Z,46.40
2019-01-20T21:48:20.556Z,48.43
2019-01-20T21:50:49.968Z,49.97
2019-01-20T21:53:18.988Z,48.80
2019-01-20T21:55:48.005Z,52.80
2019-01-20T21:58:17.040Z,46.80
2019-01-20T22:00:46.092Z,52.63
2019-01-20T22:03:15.180Z,48.47
2019-01-20T22:05:44.205Z,49.40
2019-01-20T22:08:13.244Z,47.43
2019-01-20T22:10:42.256Z,45.17
2019-01-20T22:13:11.275Z,42.90
2019-01-20T22:15:40.244Z,48.63
2019-01-20T22:18:09.288Z,45.80
2019-01-20T22:20:38.300Z,51.53
2019-01-20T22:23:08.492Z,44.90
2019-01-20T22:25:37.552Z,48.87
2019-01-20T22:28:06.571Z,45.10
2019-01-20T22:30:35.616Z,51.47
2019-01-20T22:33:04.653Z,51.70
2019-01-20T22:35:52.775Z,51.23
2019-01-20T22:38:21.808Z,46.70
2019-01-20T22:40:50.844Z,44.90
2019-01-20T22:43:19.792Z,46.00
2019-01-20T22:45:48.825Z,61.17
2019-01-20T22:48:18.080Z,48.50
2019-01-20T22:50:47.116Z,48.07
2019-01-20T22:53:16.160Z,47.20
2019-01-20T22:55:45.203Z,51.27
2019-01-20T22:58:14.248Z,46.83
2019-01-20T23:00:52.168Z,47.00
2019-01-20T23:03:21.297Z,44.40
2019-01-20T23:05:52.321Z,46.90
2019-01-20T23:08:21.403Z,48.50
2019-01-20T23:10:50.787Z,48.00
2019-01-20T23:13:19.916Z,47.47
2019-01-20T23:15:49.216Z,45.90
2019-01-20T23:18:18.236Z,48.33
2019-01-20T23:20:50.375Z,47.80
2019-01-20T23:23:19.428Z,45.43
2019-01-20T23:25:48.327Z,53.97
2019-01-20T23:28:17.353Z,49.83
2019-01-20T23:30:46.380Z,55.10
2019-01-20T23:33:15.368Z,44.13
2019-01-20T23:35:44.293Z,46.90
2019-01-20T23:38:13.292Z,47.40
2019-01-20T23:40:42.327Z,51.47
2019-01-20T23:43:11.361Z,46.73
2019-01-20T23:45:40.388Z,47.10
2019-01-20T23:48:10.256Z,49.13
2019-01-20T23:50:39.462Z,48.17
2019-01-20T23:53:08.508Z,44.97
2019-01-20T23:55:37.544Z,43.67
2019-01-20T23:58:06.589Z,48.00
